Pagrindinis puslapis
METAR-TAF:

METAR-TAF

Oro uostai :

Chillán, Čilė

platuma: 36-34S, ilguma: 072-02W, Aukštis: 124 m

Dabartinis oras

Ataskaita buvo paskelbta 1 valandą ir 10 minutes, ne 02:00 UTC
Vėjas 5 kt iš Vakarų/Pietvakarių
Temperatūra 17°C
Drėgmė 82%
Slėgis 1015 hPa
Matomumas 10 km arba daugiau
Apsiniaukę ne aukštis 5000 ft

METAR: SCCH 190200Z AUTO 24005KT 9999 OVC050 17/14 Q1015

Laikas: 23:10 (03:10 UTC)


TAF: trūkstamas

Orai ataskaitas ir orų prognozės (METAR, TAF).

turimą stotys yra geltonos ir raudonos taškus žemėlapyje.

Perkelti pele per norėdami pamatyti stoties vardą.

Tada spustelėkite, norėdami matyti oro stebėjimo ir prognozės.

Norėdami pakeisti žemėlapį: spustelėkite ant žalios mygtukų su juodo kryžiaus žemyn,; žalią mygtuką su brūkšneliu, jei norite nutolinti; arba žalių rodyklių gretimoms žemėlapius.


METAR-TAF: